sensor_id;sensor_type;location;lat;lon;timestamp;P1;durP1;ratioP1;P2;durP2;ratioP2
10641;SDS011;5369;49.586;8.646;2023-07-16T00:00:33;3.07;;;2.70;;
10641;SDS011;5369;49.586;8.646;2023-07-16T00:03:02;3.43;;;3.13;;
10641;SDS011;5369;49.586;8.646;2023-07-16T00:05:28;3.33;;;3.00;;
10641;SDS011;5369;49.586;8.646;2023-07-16T00:07:54;5.20;;;3.20;;
10641;SDS011;5369;49.586;8.646;2023-07-16T00:10:21;3.07;;;2.77;;
10641;SDS011;5369;49.586;8.646;2023-07-16T00:12:47;3.63;;;3.03;;
10641;SDS011;5369;49.586;8.646;2023-07-16T00:15:13;3.50;;;3.20;;
10641;SDS011;5369;49.586;8.646;2023-07-16T00:17:39;3.37;;;3.00;;
10641;SDS011;5369;49.586;8.646;2023-07-16T00:20:05;4.43;;;3.30;;
10641;SDS011;5369;49.586;8.646;2023-07-16T00:22:31;3.50;;;3.20;;
10641;SDS011;5369;49.586;8.646;2023-07-16T00:24:57;4.30;;;3.50;;
10641;SDS011;5369;49.586;8.646;2023-07-16T00:27:23;4.90;;;4.00;;
10641;SDS011;5369;49.586;8.646;2023-07-16T00:29:48;4.00;;;3.60;;
10641;SDS011;5369;49.586;8.646;2023-07-16T00:32:14;4.50;;;3.67;;
10641;SDS011;5369;49.586;8.646;2023-07-16T00:34:40;7.10;;;4.00;;
10641;SDS011;5369;49.586;8.646;2023-07-16T00:37:07;4.60;;;3.80;;
10641;SDS011;5369;49.586;8.646;2023-07-16T00:39:33;6.80;;;3.70;;
10641;SDS011;5369;49.586;8.646;2023-07-16T00:41:59;3.70;;;3.30;;
10641;SDS011;5369;49.586;8.646;2023-07-16T00:44:24;4.10;;;3.60;;
10641;SDS011;5369;49.586;8.646;2023-07-16T00:46:51;3.90;;;3.40;;
10641;SDS011;5369;49.586;8.646;2023-07-16T00:49:17;4.60;;;3.97;;
10641;SDS011;5369;49.586;8.646;2023-07-16T00:51:43;4.40;;;3.40;;
10641;SDS011;5369;49.586;8.646;2023-07-16T00:54:09;4.70;;;3.50;;
10641;SDS011;5369;49.586;8.646;2023-07-16T00:56:35;4.83;;;3.60;;
10641;SDS011;5369;49.586;8.646;2023-07-16T00:59:02;4.43;;;3.60;;
10641;SDS011;5369;49.586;8.646;2023-07-16T01:01:28;4.30;;;3.60;;
10641;SDS011;5369;49.586;8.646;2023-07-16T01:03:54;3.97;;;3.57;;
10641;SDS011;5369;49.586;8.646;2023-07-16T01:06:35;4.73;;;3.70;;
10641;SDS011;5369;49.586;8.646;2023-07-16T01:11:40;4.03;;;3.33;;
10641;SDS011;5369;49.586;8.646;2023-07-16T01:14:07;5.20;;;3.60;;
10641;SDS011;5369;49.586;8.646;2023-07-16T01:16:33;4.03;;;3.63;;
10641;SDS011;5369;49.586;8.646;2023-07-16T01:18:59;5.73;;;3.93;;
10641;SDS011;5369;49.586;8.646;2023-07-16T01:21:25;5.37;;;3.40;;
10641;SDS011;5369;49.586;8.646;2023-07-16T01:23:59;4.10;;;3.70;;
10641;SDS011;5369;49.586;8.646;2023-07-16T01:29:28;3.97;;;3.57;;
10641;SDS011;5369;49.586;8.646;2023-07-16T01:31:56;4.17;;;3.77;;
10641;SDS011;5369;49.586;8.646;2023-07-16T01:34:24;5.40;;;3.63;;
10641;SDS011;5369;49.586;8.646;2023-07-16T01:36:53;5.10;;;3.90;;
10641;SDS011;5369;49.586;8.646;2023-07-16T01:39:19;4.40;;;3.57;;
10641;SDS011;5369;49.586;8.646;2023-07-16T01:41:45;4.63;;;3.80;;
10641;SDS011;5369;49.586;8.646;2023-07-16T01:44:12;4.37;;;3.57;;
10641;SDS011;5369;49.586;8.646;2023-07-16T01:46:37;4.70;;;3.57;;
10641;SDS011;5369;49.586;8.646;2023-07-16T01:49:03;5.70;;;3.70;;
10641;SDS011;5369;49.586;8.646;2023-07-16T01:51:29;3.40;;;3.10;;
10641;SDS011;5369;49.586;8.646;2023-07-16T01:53:55;3.27;;;2.80;;
10641;SDS011;5369;49.586;8.646;2023-07-16T01:56:20;3.63;;;3.00;;
10641;SDS011;5369;49.586;8.646;2023-07-16T01:58:47;3.60;;;2.37;;
10641;SDS011;5369;49.586;8.646;2023-07-16T02:01:13;3.67;;;2.50;;
10641;SDS011;5369;49.586;8.646;2023-07-16T02:03:38;3.20;;;2.40;;
10641;SDS011;5369;49.586;8.646;2023-07-16T02:06:04;2.87;;;2.33;;
10641;SDS011;5369;49.586;8.646;2023-07-16T02:08:32;2.97;;;2.03;;
10641;SDS011;5369;49.586;8.646;2023-07-16T02:10:58;4.60;;;2.23;;
10641;SDS011;5369;49.586;8.646;2023-07-16T02:13:24;2.53;;;2.33;;
10641;SDS011;5369;49.586;8.646;2023-07-16T02:15:49;2.30;;;2.10;;
10641;SDS011;5369;49.586;8.646;2023-07-16T02:18:15;2.50;;;2.00;;
10641;SDS011;5369;49.586;8.646;2023-07-16T02:20:42;2.87;;;2.00;;
10641;SDS011;5369;49.586;8.646;2023-07-16T02:23:08;3.80;;;2.17;;
10641;SDS011;5369;49.586;8.646;2023-07-16T02:25:34;3.23;;;1.90;;
10641;SDS011;5369;49.586;8.646;2023-07-16T02:28:00;2.50;;;2.17;;
10641;SDS011;5369;49.586;8.646;2023-07-16T02:30:26;3.43;;;2.10;;
10641;SDS011;5369;49.586;8.646;2023-07-16T02:32:51;3.53;;;1.90;;
10641;SDS011;5369;49.586;8.646;2023-07-16T02:35:17;3.63;;;2.10;;
10641;SDS011;5369;49.586;8.646;2023-07-16T02:37:43;3.17;;;1.83;;
10641;SDS011;5369;49.586;8.646;2023-07-16T02:40:08;3.23;;;2.03;;
10641;SDS011;5369;49.586;8.646;2023-07-16T02:42:34;3.33;;;2.10;;
10641;SDS011;5369;49.586;8.646;2023-07-16T02:45:00;3.90;;;2.27;;
10641;SDS011;5369;49.586;8.646;2023-07-16T02:47:26;3.40;;;2.20;;
10641;SDS011;5369;49.586;8.646;2023-07-16T02:49:52;4.70;;;2.33;;
10641;SDS011;5369;49.586;8.646;2023-07-16T02:52:17;5.10;;;2.13;;
10641;SDS011;5369;49.586;8.646;2023-07-16T02:54:43;6.33;;;2.23;;
10641;SDS011;5369;49.586;8.646;2023-07-16T02:57:09;3.53;;;2.40;;
10641;SDS011;5369;49.586;8.646;2023-07-16T02:59:34;3.40;;;2.30;;
10641;SDS011;5369;49.586;8.646;2023-07-16T03:02:01;3.10;;;2.20;;
10641;SDS011;5369;49.586;8.646;2023-07-16T03:04:26;3.20;;;2.13;;
10641;SDS011;5369;49.586;8.646;2023-07-16T03:06:52;3.43;;;2.10;;
10641;SDS011;5369;49.586;8.646;2023-07-16T03:09:18;3.20;;;2.03;;
10641;SDS011;5369;49.586;8.646;2023-07-16T03:11:44;4.50;;;2.30;;
10641;SDS011;5369;49.586;8.646;2023-07-16T03:14:10;2.73;;;2.10;;
10641;SDS011;5369;49.586;8.646;2023-07-16T03:16:35;3.20;;;2.00;;
10641;SDS011;5369;49.586;8.646;2023-07-16T03:19:01;3.87;;;2.07;;
10641;SDS011;5369;49.586;8.646;2023-07-16T03:21:28;3.13;;;2.00;;
10641;SDS011;5369;49.586;8.646;2023-07-16T03:23:54;3.70;;;2.10;;
10641;SDS011;5369;49.586;8.646;2023-07-16T03:26:20;4.63;;;2.23;;
10641;SDS011;5369;49.586;8.646;2023-07-16T03:28:47;5.27;;;2.30;;
10641;SDS011;5369;49.586;8.646;2023-07-16T03:31:13;3.50;;;2.10;;
10641;SDS011;5369;49.586;8.646;2023-07-16T03:33:40;4.23;;;2.27;;
10641;SDS011;5369;49.586;8.646;2023-07-16T03:36:07;2.47;;;2.03;;
10641;SDS011;5369;49.586;8.646;2023-07-16T03:38:33;5.07;;;2.30;;
10641;SDS011;5369;49.586;8.646;2023-07-16T03:40:58;4.47;;;2.03;;
10641;SDS011;5369;49.586;8.646;2023-07-16T03:43:26;5.10;;;2.33;;
10641;SDS011;5369;49.586;8.646;2023-07-16T03:45:57;5.23;;;2.20;;
10641;SDS011;5369;49.586;8.646;2023-07-16T03:48:23;3.67;;;2.30;;
10641;SDS011;5369;49.586;8.646;2023-07-16T03:50:49;5.53;;;2.30;;
10641;SDS011;5369;49.586;8.646;2023-07-16T03:53:15;5.53;;;2.53;;
10641;SDS011;5369;49.586;8.646;2023-07-16T03:55:41;5.40;;;2.43;;
10641;SDS011;5369;49.586;8.646;2023-07-16T03:58:06;6.97;;;2.07;;
10641;SDS011;5369;49.586;8.646;2023-07-16T04:00:32;5.13;;;2.20;;
10641;SDS011;5369;49.586;8.646;2023-07-16T04:02:58;3.43;;;2.10;;
10641;SDS011;5369;49.586;8.646;2023-07-16T04:05:24;3.20;;;2.07;;
10641;SDS011;5369;49.586;8.646;2023-07-16T04:07:50;3.27;;;2.10;;
10641;SDS011;5369;49.586;8.646;2023-07-16T04:10:16;4.53;;;2.27;;
10641;SDS011;5369;49.586;8.646;2023-07-16T04:12:42;4.80;;;2.10;;
10641;SDS011;5369;49.586;8.646;2023-07-16T04:15:08;3.23;;;2.20;;
10641;SDS011;5369;49.586;8.646;2023-07-16T04:17:37;3.97;;;2.37;;
10641;SDS011;5369;49.586;8.646;2023-07-16T04:20:02;5.17;;;2.30;;
10641;SDS011;5369;49.586;8.646;2023-07-16T04:22:32;4.93;;;2.10;;
10641;SDS011;5369;49.586;8.646;2023-07-16T04:24:58;4.13;;;2.20;;
10641;SDS011;5369;49.586;8.646;2023-07-16T04:27:24;4.93;;;2.23;;
10641;SDS011;5369;49.586;8.646;2023-07-16T04:29:50;4.43;;;2.20;;
10641;SDS011;5369;49.586;8.646;2023-07-16T04:32:16;7.60;;;2.60;;
10641;SDS011;5369;49.586;8.646;2023-07-16T04:34:41;7.53;;;2.37;;
10641;SDS011;5369;49.586;8.646;2023-07-16T04:37:07;4.13;;;2.40;;
10641;SDS011;5369;49.586;8.646;2023-07-16T04:39:33;7.43;;;2.73;;
10641;SDS011;5369;49.586;8.646;2023-07-16T04:41:58;4.37;;;2.33;;
10641;SDS011;5369;49.586;8.646;2023-07-16T04:44:24;4.93;;;2.30;;
10641;SDS011;5369;49.586;8.646;2023-07-16T04:46:50;2.47;;;2.10;;
10641;SDS011;5369;49.586;8.646;2023-07-16T04:49:15;3.03;;;2.30;;
10641;SDS011;5369;49.586;8.646;2023-07-16T04:51:41;4.73;;;2.60;;
10641;SDS011;5369;49.586;8.646;2023-07-16T04:54:07;4.10;;;2.50;;
10641;SDS011;5369;49.586;8.646;2023-07-16T04:56:32;5.33;;;2.40;;
10641;SDS011;5369;49.586;8.646;2023-07-16T04:58:58;7.03;;;2.80;;
10641;SDS011;5369;49.586;8.646;2023-07-16T05:01:24;4.37;;;2.67;;
10641;SDS011;5369;49.586;8.646;2023-07-16T05:03:50;4.70;;;2.40;;
10641;SDS011;5369;49.586;8.646;2023-07-16T05:06:16;4.40;;;2.47;;
10641;SDS011;5369;49.586;8.646;2023-07-16T05:08:41;4.30;;;2.40;;
10641;SDS011;5369;49.586;8.646;2023-07-16T05:11:07;6.13;;;2.50;;
10641;SDS011;5369;49.586;8.646;2023-07-16T05:13:33;8.23;;;2.73;;
10641;SDS011;5369;49.586;8.646;2023-07-16T05:15:59;4.90;;;2.40;;
10641;SDS011;5369;49.586;8.646;2023-07-16T05:18:24;3.73;;;2.70;;
10641;SDS011;5369;49.586;8.646;2023-07-16T05:20:50;4.30;;;2.47;;
10641;SDS011;5369;49.586;8.646;2023-07-16T05:23:16;4.90;;;2.70;;
10641;SDS011;5369;49.586;8.646;2023-07-16T05:25:45;4.13;;;2.73;;
10641;SDS011;5369;49.586;8.646;2023-07-16T05:28:12;3.17;;;2.17;;
10641;SDS011;5369;49.586;8.646;2023-07-16T05:30:38;3.63;;;2.30;;
10641;SDS011;5369;49.586;8.646;2023-07-16T05:33:04;3.47;;;2.20;;
10641;SDS011;5369;49.586;8.646;2023-07-16T05:35:30;4.27;;;2.30;;
10641;SDS011;5369;49.586;8.646;2023-07-16T05:37:55;4.73;;;2.30;;
10641;SDS011;5369;49.586;8.646;2023-07-16T05:40:21;5.57;;;2.00;;
10641;SDS011;5369;49.586;8.646;2023-07-16T05:42:47;4.47;;;2.40;;
10641;SDS011;5369;49.586;8.646;2023-07-16T05:45:13;3.90;;;2.03;;
10641;SDS011;5369;49.586;8.646;2023-07-16T05:47:38;4.43;;;2.10;;
10641;SDS011;5369;49.586;8.646;2023-07-16T05:50:04;3.60;;;2.20;;
10641;SDS011;5369;49.586;8.646;2023-07-16T05:52:30;8.10;;;2.27;;
10641;SDS011;5369;49.586;8.646;2023-07-16T05:54:57;5.13;;;2.23;;
10641;SDS011;5369;49.586;8.646;2023-07-16T05:57:22;3.60;;;1.90;;
10641;SDS011;5369;49.586;8.646;2023-07-16T05:59:48;5.87;;;2.50;;
10641;SDS011;5369;49.586;8.646;2023-07-16T06:02:14;4.40;;;2.53;;
10641;SDS011;5369;49.586;8.646;2023-07-16T06:04:39;3.27;;;2.10;;
10641;SDS011;5369;49.586;8.646;2023-07-16T06:07:05;5.10;;;2.10;;
10641;SDS011;5369;49.586;8.646;2023-07-16T06:09:32;6.03;;;2.50;;
10641;SDS011;5369;49.586;8.646;2023-07-16T06:11:58;4.47;;;2.30;;
10641;SDS011;5369;49.586;8.646;2023-07-16T06:14:24;4.77;;;2.10;;
10641;SDS011;5369;49.586;8.646;2023-07-16T06:16:50;5.73;;;2.33;;
10641;SDS011;5369;49.586;8.646;2023-07-16T06:19:15;5.17;;;2.37;;
10641;SDS011;5369;49.586;8.646;2023-07-16T06:21:41;5.43;;;2.63;;
10641;SDS011;5369;49.586;8.646;2023-07-16T06:24:07;5.77;;;2.40;;
10641;SDS011;5369;49.586;8.646;2023-07-16T06:26:32;5.50;;;2.50;;
10641;SDS011;5369;49.586;8.646;2023-07-16T06:28:58;3.63;;;2.23;;
10641;SDS011;5369;49.586;8.646;2023-07-16T06:31:24;5.87;;;2.60;;
10641;SDS011;5369;49.586;8.646;2023-07-16T06:33:49;5.97;;;2.00;;
10641;SDS011;5369;49.586;8.646;2023-07-16T06:36:16;7.70;;;2.60;;
10641;SDS011;5369;49.586;8.646;2023-07-16T06:38:41;3.40;;;2.30;;
10641;SDS011;5369;49.586;8.646;2023-07-16T06:41:07;3.73;;;2.40;;
10641;SDS011;5369;49.586;8.646;2023-07-16T06:43:33;4.80;;;2.03;;
10641;SDS011;5369;49.586;8.646;2023-07-16T06:45:58;5.40;;;2.60;;
10641;SDS011;5369;49.586;8.646;2023-07-16T06:48:25;4.70;;;2.40;;
10641;SDS011;5369;49.586;8.646;2023-07-16T06:50:50;5.37;;;2.20;;
10641;SDS011;5369;49.586;8.646;2023-07-16T06:53:16;5.10;;;2.40;;
10641;SDS011;5369;49.586;8.646;2023-07-16T06:55:42;4.73;;;2.47;;
10641;SDS011;5369;49.586;8.646;2023-07-16T06:58:10;4.90;;;2.30;;
10641;SDS011;5369;49.586;8.646;2023-07-16T07:00:36;7.73;;;2.73;;
10641;SDS011;5369;49.586;8.646;2023-07-16T07:03:01;4.63;;;2.40;;
10641;SDS011;5369;49.586;8.646;2023-07-16T07:05:27;7.03;;;2.63;;
10641;SDS011;5369;49.586;8.646;2023-07-16T07:07:53;5.40;;;2.63;;
10641;SDS011;5369;49.586;8.646;2023-07-16T07:10:18;5.10;;;2.37;;
10641;SDS011;5369;49.586;8.646;2023-07-16T07:12:44;10.50;;;2.43;;
10641;SDS011;5369;49.586;8.646;2023-07-16T07:15:10;6.67;;;2.60;;
10641;SDS011;5369;49.586;8.646;2023-07-16T07:17:36;5.37;;;2.80;;
10641;SDS011;5369;49.586;8.646;2023-07-16T07:20:02;7.67;;;2.53;;
10641;SDS011;5369;49.586;8.646;2023-07-16T07:22:28;6.00;;;2.60;;
10641;SDS011;5369;49.586;8.646;2023-07-16T07:24:54;6.93;;;3.20;;
10641;SDS011;5369;49.586;8.646;2023-07-16T07:27:20;6.70;;;2.77;;
10641;SDS011;5369;49.586;8.646;2023-07-16T07:29:45;6.37;;;2.90;;
10641;SDS011;5369;49.586;8.646;2023-07-16T07:32:18;7.20;;;2.53;;
10641;SDS011;5369;49.586;8.646;2023-07-16T07:34:45;3.33;;;2.20;;
10641;SDS011;5369;49.586;8.646;2023-07-16T07:37:11;9.33;;;3.00;;
10641;SDS011;5369;49.586;8.646;2023-07-16T07:39:36;7.40;;;2.90;;
10641;SDS011;5369;49.586;8.646;2023-07-16T07:42:02;3.83;;;2.40;;
10641;SDS011;5369;49.586;8.646;2023-07-16T07:44:28;5.60;;;2.70;;
10641;SDS011;5369;49.586;8.646;2023-07-16T07:46:54;4.63;;;2.90;;
10641;SDS011;5369;49.586;8.646;2023-07-16T07:49:20;5.87;;;2.83;;
10641;SDS011;5369;49.586;8.646;2023-07-16T07:51:45;7.00;;;2.80;;
10641;SDS011;5369;49.586;8.646;2023-07-16T07:54:14;5.40;;;2.77;;
10641;SDS011;5369;49.586;8.646;2023-07-16T07:56:40;5.60;;;2.80;;
10641;SDS011;5369;49.586;8.646;2023-07-16T07:59:06;7.23;;;3.00;;
10641;SDS011;5369;49.586;8.646;2023-07-16T08:01:32;5.00;;;2.67;;
10641;SDS011;5369;49.586;8.646;2023-07-16T08:03:58;5.60;;;2.73;;
10641;SDS011;5369;49.586;8.646;2023-07-16T08:06:23;6.77;;;2.73;;
10641;SDS011;5369;49.586;8.646;2023-07-16T08:08:49;6.67;;;2.93;;
10641;SDS011;5369;49.586;8.646;2023-07-16T08:11:15;4.50;;;2.47;;
10641;SDS011;5369;49.586;8.646;2023-07-16T08:13:40;5.87;;;2.33;;
10641;SDS011;5369;49.586;8.646;2023-07-16T08:16:06;5.03;;;3.00;;
10641;SDS011;5369;49.586;8.646;2023-07-16T08:18:32;5.00;;;2.50;;
10641;SDS011;5369;49.586;8.646;2023-07-16T08:20:58;4.20;;;2.57;;
10641;SDS011;5369;49.586;8.646;2023-07-16T08:23:24;4.40;;;2.57;;
10641;SDS011;5369;49.586;8.646;2023-07-16T08:25:49;4.63;;;2.60;;
10641;SDS011;5369;49.586;8.646;2023-07-16T08:28:16;5.27;;;2.77;;
10641;SDS011;5369;49.586;8.646;2023-07-16T08:30:42;5.87;;;2.60;;
10641;SDS011;5369;49.586;8.646;2023-07-16T08:33:11;5.37;;;2.87;;
10641;SDS011;5369;49.586;8.646;2023-07-16T08:35:37;6.03;;;2.40;;
10641;SDS011;5369;49.586;8.646;2023-07-16T08:38:04;4.73;;;2.80;;
10641;SDS011;5369;49.586;8.646;2023-07-16T08:40:33;6.13;;;2.77;;
10641;SDS011;5369;49.586;8.646;2023-07-16T08:42:59;5.60;;;2.50;;
10641;SDS011;5369;49.586;8.646;2023-07-16T08:45:28;4.93;;;2.60;;
10641;SDS011;5369;49.586;8.646;2023-07-16T08:47:55;5.93;;;2.57;;
10641;SDS011;5369;49.586;8.646;2023-07-16T08:50:22;6.07;;;2.30;;
10641;SDS011;5369;49.586;8.646;2023-07-16T08:52:50;4.50;;;2.80;;
10641;SDS011;5369;49.586;8.646;2023-07-16T08:55:16;6.00;;;2.27;;
10641;SDS011;5369;49.586;8.646;2023-07-16T08:57:42;7.97;;;2.60;;
10641;SDS011;5369;49.586;8.646;2023-07-16T09:00:08;5.03;;;2.30;;
10641;SDS011;5369;49.586;8.646;2023-07-16T09:02:35;5.10;;;2.60;;
10641;SDS011;5369;49.586;8.646;2023-07-16T09:05:01;5.67;;;2.40;;
10641;SDS011;5369;49.586;8.646;2023-07-16T09:07:29;4.50;;;2.60;;
10641;SDS011;5369;49.586;8.646;2023-07-16T09:09:55;4.83;;;2.33;;
10641;SDS011;5369;49.586;8.646;2023-07-16T09:12:23;4.97;;;2.23;;
10641;SDS011;5369;49.586;8.646;2023-07-16T09:14:49;3.40;;;2.47;;
10641;SDS011;5369;49.586;8.646;2023-07-16T09:17:25;4.83;;;2.53;;
10641;SDS011;5369;49.586;8.646;2023-07-16T09:19:57;5.47;;;2.20;;
10641;SDS011;5369;49.586;8.646;2023-07-16T09:22:31;4.50;;;2.30;;
10641;SDS011;5369;49.586;8.646;2023-07-16T09:24:59;5.10;;;2.50;;
10641;SDS011;5369;49.586;8.646;2023-07-16T09:27:29;5.37;;;2.53;;
10641;SDS011;5369;49.586;8.646;2023-07-16T09:29:55;4.63;;;2.57;;
10641;SDS011;5369;49.586;8.646;2023-07-16T09:32:21;4.90;;;2.50;;
10641;SDS011;5369;49.586;8.646;2023-07-16T09:34:50;6.30;;;2.83;;
10641;SDS011;5369;49.586;8.646;2023-07-16T09:37:17;5.30;;;2.50;;
10641;SDS011;5369;49.586;8.646;2023-07-16T09:39:43;2.87;;;2.03;;
10641;SDS011;5369;49.586;8.646;2023-07-16T09:42:11;4.67;;;2.20;;
10641;SDS011;5369;49.586;8.646;2023-07-16T09:44:39;7.47;;;3.13;;
10641;SDS011;5369;49.586;8.646;2023-07-16T09:47:07;3.23;;;2.23;;
10641;SDS011;5369;49.586;8.646;2023-07-16T09:49:34;6.03;;;2.47;;
10641;SDS011;5369;49.586;8.646;2023-07-16T09:52:00;5.67;;;2.90;;
10641;SDS011;5369;49.586;8.646;2023-07-16T09:54:28;3.53;;;2.30;;
10641;SDS011;5369;49.586;8.646;2023-07-16T09:56:57;4.97;;;2.50;;
10641;SDS011;5369;49.586;8.646;2023-07-16T09:59:27;3.90;;;2.23;;
10641;SDS011;5369;49.586;8.646;2023-07-16T10:01:55;6.20;;;2.40;;
10641;SDS011;5369;49.586;8.646;2023-07-16T10:04:21;4.33;;;2.30;;
10641;SDS011;5369;49.586;8.646;2023-07-16T10:06:54;4.03;;;2.37;;
10641;SDS011;5369;49.586;8.646;2023-07-16T10:09:40;3.53;;;2.37;;
10641;SDS011;5369;49.586;8.646;2023-07-16T10:14:40;6.60;;;2.50;;
10641;SDS011;5369;49.586;8.646;2023-07-16T10:17:11;7.50;;;2.60;;
10641;SDS011;5369;49.586;8.646;2023-07-16T10:22:31;5.43;;;2.83;;
10641;SDS011;5369;49.586;8.646;2023-07-16T10:24:58;5.33;;;2.50;;
10641;SDS011;5369;49.586;8.646;2023-07-16T10:27:28;4.17;;;2.50;;
10641;SDS011;5369;49.586;8.646;2023-07-16T10:29:54;4.70;;;2.53;;
10641;SDS011;5369;49.586;8.646;2023-07-16T10:32:20;6.77;;;2.40;;
10641;SDS011;5369;49.586;8.646;2023-07-16T10:34:46;6.70;;;2.30;;
10641;SDS011;5369;49.586;8.646;2023-07-16T10:37:12;3.07;;;2.13;;
10641;SDS011;5369;49.586;8.646;2023-07-16T10:39:50;5.07;;;2.60;;
10641;SDS011;5369;49.586;8.646;2023-07-16T10:42:18;4.17;;;2.40;;
10641;SDS011;5369;49.586;8.646;2023-07-16T10:44:47;4.93;;;2.30;;
10641;SDS011;5369;49.586;8.646;2023-07-16T10:47:29;5.40;;;2.63;;
10641;SDS011;5369;49.586;8.646;2023-07-16T10:49:59;3.73;;;2.33;;
10641;SDS011;5369;49.586;8.646;2023-07-16T10:52:26;5.67;;;2.50;;
10641;SDS011;5369;49.586;8.646;2023-07-16T10:54:52;4.30;;;2.53;;
10641;SDS011;5369;49.586;8.646;2023-07-16T10:57:23;5.33;;;2.57;;
10641;SDS011;5369;49.586;8.646;2023-07-16T10:59:53;5.13;;;2.70;;
10641;SDS011;5369;49.586;8.646;2023-07-16T11:02:21;4.43;;;2.40;;
10641;SDS011;5369;49.586;8.646;2023-07-16T11:04:49;5.90;;;2.80;;
10641;SDS011;5369;49.586;8.646;2023-07-16T11:07:15;5.20;;;2.57;;
10641;SDS011;5369;49.586;8.646;2023-07-16T11:09:46;4.57;;;2.27;;
10641;SDS011;5369;49.586;8.646;2023-07-16T11:12:22;4.50;;;2.50;;
10641;SDS011;5369;49.586;8.646;2023-07-16T11:14:50;5.30;;;2.40;;
10641;SDS011;5369;49.586;8.646;2023-07-16T11:17:18;3.80;;;2.50;;
10641;SDS011;5369;49.586;8.646;2023-07-16T11:19:48;4.37;;;2.57;;
10641;SDS011;5369;49.586;8.646;2023-07-16T11:22:16;3.87;;;2.40;;
10641;SDS011;5369;49.586;8.646;2023-07-16T11:24:44;4.20;;;2.43;;
10641;SDS011;5369;49.586;8.646;2023-07-16T11:27:16;4.93;;;2.33;;
10641;SDS011;5369;49.586;8.646;2023-07-16T11:29:47;4.80;;;2.20;;
10641;SDS011;5369;49.586;8.646;2023-07-16T11:33:09;4.20;;;2.40;;
10641;SDS011;5369;49.586;8.646;2023-07-16T11:35:16;5.57;;;2.40;;
10641;SDS011;5369;49.586;8.646;2023-07-16T11:37:43;5.50;;;2.63;;
10641;SDS011;5369;49.586;8.646;2023-07-16T11:40:10;5.07;;;2.53;;
10641;SDS011;5369;49.586;8.646;2023-07-16T11:42:39;4.70;;;2.60;;
10641;SDS011;5369;49.586;8.646;2023-07-16T11:45:14;4.87;;;2.30;;
10641;SDS011;5369;49.586;8.646;2023-07-16T11:47:45;4.57;;;2.50;;
10641;SDS011;5369;49.586;8.646;2023-07-16T11:50:11;3.73;;;2.40;;
10641;SDS011;5369;49.586;8.646;2023-07-16T11:52:37;4.00;;;2.40;;
10641;SDS011;5369;49.586;8.646;2023-07-16T11:55:04;3.93;;;2.50;;
10641;SDS011;5369;49.586;8.646;2023-07-16T11:57:30;3.87;;;2.30;;
10641;SDS011;5369;49.586;8.646;2023-07-16T11:59:56;4.83;;;2.40;;
10641;SDS011;5369;49.586;8.646;2023-07-16T12:02:22;4.17;;;2.60;;
10641;SDS011;5369;49.586;8.646;2023-07-16T12:04:50;5.43;;;2.50;;
10641;SDS011;5369;49.586;8.646;2023-07-16T12:07:29;3.40;;;2.33;;
10641;SDS011;5369;49.586;8.646;2023-07-16T12:10:04;3.23;;;2.50;;
10641;SDS011;5369;49.586;8.646;2023-07-16T12:12:32;6.73;;;2.50;;
10641;SDS011;5369;49.586;8.646;2023-07-16T12:15:01;3.77;;;2.40;;
10641;SDS011;5369;49.586;8.646;2023-07-16T12:17:27;4.87;;;2.60;;
10641;SDS011;5369;49.586;8.646;2023-07-16T12:19:53;4.30;;;2.40;;
10641;SDS011;5369;49.586;8.646;2023-07-16T12:22:19;2.77;;;2.07;;
10641;SDS011;5369;49.586;8.646;2023-07-16T12:24:46;4.00;;;2.37;;
10641;SDS011;5369;49.586;8.646;2023-07-16T12:27:11;3.10;;;2.40;;
10641;SDS011;5369;49.586;8.646;2023-07-16T12:29:39;3.57;;;2.43;;
10641;SDS011;5369;49.586;8.646;2023-07-16T12:32:05;3.20;;;2.40;;
10641;SDS011;5369;49.586;8.646;2023-07-16T12:34:31;3.53;;;2.40;;
10641;SDS011;5369;49.586;8.646;2023-07-16T12:36:57;4.00;;;2.13;;
10641;SDS011;5369;49.586;8.646;2023-07-16T12:39:22;4.27;;;2.50;;
10641;SDS011;5369;49.586;8.646;2023-07-16T12:41:49;4.60;;;2.40;;
10641;SDS011;5369;49.586;8.646;2023-07-16T12:44:14;2.90;;;2.37;;
10641;SDS011;5369;49.586;8.646;2023-07-16T12:46:40;3.47;;;2.33;;
10641;SDS011;5369;49.586;8.646;2023-07-16T12:49:06;4.43;;;2.20;;
10641;SDS011;5369;49.586;8.646;2023-07-16T12:51:32;3.93;;;2.50;;
10641;SDS011;5369;49.586;8.646;2023-07-16T12:53:57;3.90;;;2.63;;
10641;SDS011;5369;49.586;8.646;2023-07-16T12:56:25;3.30;;;2.50;;
10641;SDS011;5369;49.586;8.646;2023-07-16T12:58:51;4.33;;;2.53;;
10641;SDS011;5369;49.586;8.646;2023-07-16T13:01:16;3.53;;;2.60;;
10641;SDS011;5369;49.586;8.646;2023-07-16T13:03:42;4.67;;;2.20;;
10641;SDS011;5369;49.586;8.646;2023-07-16T13:06:08;3.00;;;2.50;;
10641;SDS011;5369;49.586;8.646;2023-07-16T13:08:34;4.53;;;2.40;;
10641;SDS011;5369;49.586;8.646;2023-07-16T13:11:00;2.50;;;2.20;;
10641;SDS011;5369;49.586;8.646;2023-07-16T13:13:26;4.77;;;2.17;;
10641;SDS011;5369;49.586;8.646;2023-07-16T13:15:53;3.57;;;2.13;;
10641;SDS011;5369;49.586;8.646;2023-07-16T13:18:19;4.87;;;2.40;;
10641;SDS011;5369;49.586;8.646;2023-07-16T13:20:45;3.37;;;2.17;;
10641;SDS011;5369;49.586;8.646;2023-07-16T13:23:11;2.90;;;2.20;;
10641;SDS011;5369;49.586;8.646;2023-07-16T13:25:38;3.00;;;2.20;;
10641;SDS011;5369;49.586;8.646;2023-07-16T13:28:05;6.80;;;2.30;;
10641;SDS011;5369;49.586;8.646;2023-07-16T13:30:31;3.20;;;2.33;;
10641;SDS011;5369;49.586;8.646;2023-07-16T13:32:57;2.73;;;2.20;;
10641;SDS011;5369;49.586;8.646;2023-07-16T13:35:23;3.57;;;2.40;;
10641;SDS011;5369;49.586;8.646;2023-07-16T13:37:49;3.73;;;2.37;;
10641;SDS011;5369;49.586;8.646;2023-07-16T13:40:16;3.63;;;2.43;;
10641;SDS011;5369;49.586;8.646;2023-07-16T13:42:45;3.57;;;2.40;;
10641;SDS011;5369;49.586;8.646;2023-07-16T13:45:12;3.37;;;2.60;;
10641;SDS011;5369;49.586;8.646;2023-07-16T13:47:38;4.43;;;2.50;;
10641;SDS011;5369;49.586;8.646;2023-07-16T13:50:04;3.53;;;2.30;;
10641;SDS011;5369;49.586;8.646;2023-07-16T13:52:30;2.97;;;2.20;;
10641;SDS011;5369;49.586;8.646;2023-07-16T13:54:56;2.73;;;2.13;;
10641;SDS011;5369;49.586;8.646;2023-07-16T13:57:23;2.40;;;2.10;;
10641;SDS011;5369;49.586;8.646;2023-07-16T13:59:49;3.23;;;2.20;;
10641;SDS011;5369;49.586;8.646;2023-07-16T14:02:15;3.87;;;2.20;;
10641;SDS011;5369;49.586;8.646;2023-07-16T14:04:41;2.67;;;2.27;;
10641;SDS011;5369;49.586;8.646;2023-07-16T14:07:07;3.10;;;2.23;;
10641;SDS011;5369;49.586;8.646;2023-07-16T14:09:33;2.60;;;2.40;;
10641;SDS011;5369;49.586;8.646;2023-07-16T14:11:59;2.83;;;2.20;;
10641;SDS011;5369;49.586;8.646;2023-07-16T14:14:26;3.28;;;2.22;;
10641;SDS011;5369;49.586;8.646;2023-07-16T14:16:52;4.63;;;2.40;;
10641;SDS011;5369;49.586;8.646;2023-07-16T14:19:18;2.67;;;2.20;;
10641;SDS011;5369;49.586;8.646;2023-07-16T14:21:44;2.78;;;2.38;;
10641;SDS011;5369;49.586;8.646;2023-07-16T14:24:10;4.68;;;2.20;;
10641;SDS011;5369;49.586;8.646;2023-07-16T14:26:37;4.13;;;2.60;;
10641;SDS011;5369;49.586;8.646;2023-07-16T14:29:03;3.30;;;2.40;;
10641;SDS011;5369;49.586;8.646;2023-07-16T14:31:30;2.60;;;2.30;;
10641;SDS011;5369;49.586;8.646;2023-07-16T14:33:56;2.60;;;2.28;;
10641;SDS011;5369;49.586;8.646;2023-07-16T14:36:22;2.83;;;2.40;;
10641;SDS011;5369;49.586;8.646;2023-07-16T14:38:49;5.22;;;2.50;;
10641;SDS011;5369;49.586;8.646;2023-07-16T14:41:15;7.57;;;2.50;;
10641;SDS011;5369;49.586;8.646;2023-07-16T14:43:41;3.70;;;2.42;;
10641;SDS011;5369;49.586;8.646;2023-07-16T14:46:08;4.60;;;2.50;;
10641;SDS011;5369;49.586;8.646;2023-07-16T14:48:40;3.75;;;2.40;;
10641;SDS011;5369;49.586;8.646;2023-07-16T14:51:07;3.70;;;2.40;;
10641;SDS011;5369;49.586;8.646;2023-07-16T14:53:33;3.60;;;2.70;;
10641;SDS011;5369;49.586;8.646;2023-07-16T14:55:59;3.85;;;2.40;;
10641;SDS011;5369;49.586;8.646;2023-07-16T14:58:25;4.72;;;2.47;;
10641;SDS011;5369;49.586;8.646;2023-07-16T15:00:51;3.30;;;2.45;;
10641;SDS011;5369;49.586;8.646;2023-07-16T15:03:17;2.63;;;2.38;;
10641;SDS011;5369;49.586;8.646;2023-07-16T15:05:44;3.42;;;2.70;;
10641;SDS011;5369;49.586;8.646;2023-07-16T15:08:10;2.78;;;2.17;;